Terminal Aerodrome Forecast
Issued by NWS Cleveland, OH

Home | Current Version | Previous Version | Graphics & Text | Print | Product List | Glossary On
Versions: 1 2 3 4 5 6 7 8 9 10 11 12 13 14
000
FTUS41 KCLE 191100 RRA
TAFERI
TAF
KERI 191141Z 1912/2012 29010KT P6SM OVC015
     FM191700 31006KT P6SM OVC025
     FM200300 32006KT P6SM OVC015=

USA.gov is the U.S. government's official web portal to all federal, state and local government web resources and services.